Time;durP1;ratioP1;P1;durP2;ratioP2;P2;SDS_P1;SDS_P2;PMS_P1;PMS_P2;Temp;Humidity;BMP_temperature;BMP_pressure;BME280_temperature;BME280_humidity;BME280_pressure;Samples;Min_cycle;Max_cycle;Signal;HPM_P1;HPM_P2
2022/01/08 00:00:56;;;;;;;0.00;0.00;;;3.60;99.90;;;;;;5039198;28;20048;-88
2022/01/08 00:03:21;;;;;;;0.28;0.00;;;2.40;99.90;;;;;;5055639;28;20364;-88
2022/01/08 00:05:48;;;;;;;0.10;0.10;;;3.10;99.90;;;;;;5038437;28;20049;-87
2022/01/08 00:08:14;;;;;;;0.00;0.00;;;2.30;99.90;;;;;;5055611;28;20049;-88
2022/01/08 00:10:41;;;;;;;1.38;0.35;;;2.40;99.90;;;;;;5055473;28;20154;-88
2022/01/08 00:13:07;;;;;;;0.00;0.00;;;2.30;99.90;;;;;;5055564;28;20056;-89
2022/01/08 00:15:34;;;;;;;0.00;0.00;;;2.70;99.90;;;;;;5038737;28;20395;-87
2022/01/08 00:18:00;;;;;;;0.10;0.00;;;2.40;99.90;;;;;;5038652;28;20139;-88
2022/01/08 00:20:27;;;;;;;0.00;0.00;;;2.40;99.90;;;;;;5041336;28;20080;-88
2022/01/08 00:22:54;;;;;;;0.13;0.00;;;2.40;99.90;;;;;;5042998;28;20055;-88
2022/01/08 00:25:20;;;;;;;0.08;0.08;;;2.50;99.90;;;;;;5059239;28;20066;-88
2022/01/08 00:27:46;;;;;;;0.00;0.00;;;2.40;99.90;;;;;;5042200;28;20484;-88
2022/01/08 00:30:13;;;;;;;0.00;0.00;;;2.40;99.90;;;;;;5059258;28;20041;-88
2022/01/08 00:32:42;;;;;;;0.00;0.00;;;2.40;99.90;;;;;;5059381;28;20052;-88
2022/01/08 00:35:09;;;;;;;0.17;0.10;;;2.40;99.90;;;;;;5042525;28;20150;-89
2022/01/08 00:37:37;;;;;;;0.13;0.10;;;2.30;99.90;;;;;;5059142;28;20135;-88
2022/01/08 00:40:08;;;;;;;0.17;0.05;;;2.40;99.90;;;;;;5042553;28;20060;-88
2022/01/08 00:42:34;;;;;;;0.00;0.00;;;2.40;99.90;;;;;;5042933;28;20083;-88
2022/01/08 00:45:00;;;;;;;0.00;0.00;;;2.20;99.90;;;;;;5058960;28;20588;-88
2022/01/08 00:47:26;;;;;;;0.00;0.00;;;2.40;99.90;;;;;;5058888;28;20048;-88
2022/01/08 00:49:51;;;;;;;0.10;0.10;;;2.80;99.90;;;;;;5059024;28;20480;-88
2022/01/08 00:52:17;;;;;;;0.03;0.03;;;2.40;99.90;;;;;;5042279;28;20468;-88
2022/01/08 00:54:43;;;;;;;0.00;0.00;;;2.50;99.90;;;;;;5042352;28;20076;-88
2022/01/08 00:57:09;;;;;;;0.00;0.00;;;2.40;99.90;;;;;;5058958;28;20052;-88
2022/01/08 00:59:34;;;;;;;0.10;0.10;;;2.50;99.90;;;;;;5042239;28;20048;-88
2022/01/08 01:02:00;;;;;;;0.00;0.00;;;2.50;99.90;;;;;;5042097;28;20093;-88
2022/01/08 01:04:27;;;;;;;0.10;0.10;;;2.40;99.90;;;;;;5058598;28;20138;-88
2022/01/08 01:06:53;;;;;;;0.00;0.00;;;2.50;99.90;;;;;;5058814;28;20110;-88
2022/01/08 01:09:19;;;;;;;0.00;0.00;;;2.50;99.90;;;;;;5058678;28;20580;-88
2022/01/08 01:11:44;;;;;;;0.00;0.00;;;2.50;99.90;;;;;;5041811;28;20075;-88
2022/01/08 01:14:10;;;;;;;0.00;0.00;;;2.50;99.90;;;;;;5041999;28;20056;-88
2022/01/08 01:16:36;;;;;;;0.15;0.13;;;2.40;99.90;;;;;;5041660;28;20059;-88
2022/01/08 01:19:03;;;;;;;0.00;0.00;;;2.40;99.90;;;;;;5041606;28;20503;-88
2022/01/08 01:21:29;;;;;;;0.03;0.00;;;2.40;99.90;;;;;;5041929;28;20041;-88
2022/01/08 01:23:56;;;;;;;0.20;0.00;;;2.60;99.90;;;;;;5041689;28;20048;-88
2022/01/08 01:26:25;;;;;;;0.00;0.00;;;2.40;99.90;;;;;;5058667;28;20545;-88
2022/01/08 01:47:11;;;;;;;0.20;0.20;;;2.00;99.90;;;;;;5058240;28;20068;-88
2022/01/08 01:49:42;;;;;;;0.20;0.20;;;2.00;99.90;;;;;;5041265;28;20045;-88
2022/01/08 01:52:10;;;;;;;0.00;0.00;;;1.90;99.90;;;;;;5041263;28;20128;-88
2022/01/08 01:54:37;;;;;;;0.10;0.10;;;1.90;99.90;;;;;;5057642;28;20131;-88
2022/01/08 01:57:04;;;;;;;0.00;0.00;;;1.90;99.90;;;;;;5057550;28;20045;-87
2022/01/08 01:59:32;;;;;;;0.00;0.00;;;1.80;99.90;;;;;;5057668;28;20115;-88
2022/01/08 02:01:58;;;;;;;0.00;0.00;;;1.80;99.90;;;;;;5057750;28;20131;-88
2022/01/08 02:04:24;;;;;;;0.00;0.00;;;1.80;99.90;;;;;;5040924;28;20137;-88
2022/01/08 02:06:50;;;;;;;0.43;0.43;;;1.70;99.90;;;;;;5057585;28;20040;-88
2022/01/08 02:09:16;;;;;;;0.32;0.32;;;1.70;99.90;;;;;;5040918;28;20118;-88
2022/01/08 02:12:02;;;;;;;0.00;0.00;;;1.70;99.90;;;;;;5041016;28;20435;-88
2022/01/08 02:14:30;;;;;;;0.15;0.15;;;2.00;99.90;;;;;;5057470;28;20561;-88
2022/01/08 02:16:56;;;;;;;0.13;0.10;;;1.80;99.90;;;;;;5053506;28;20052;-88
2022/01/08 02:19:22;;;;;;;0.85;0.47;;;1.70;99.90;;;;;;5053893;28;20060;-89
2022/01/08 02:21:52;;;;;;;0.10;0.10;;;1.60;99.90;;;;;;5054627;28;20131;-88
2022/01/08 02:24:18;;;;;;;0.00;0.00;;;1.60;99.90;;;;;;5054445;28;20037;-89
2022/01/08 02:26:44;;;;;;;0.00;0.00;;;1.60;99.90;;;;;;5037309;28;20098;-89
2022/01/08 02:29:13;;;;;;;0.13;0.10;;;1.70;99.90;;;;;;5053890;28;20381;-89
2022/01/08 02:31:39;;;;;;;0.00;0.00;;;1.60;99.90;;;;;;5037246;28;20090;-88
2022/01/08 02:34:06;;;;;;;1.90;0.35;;;1.60;99.90;;;;;;5037057;28;20131;-89
2022/01/08 02:36:33;;;;;;;0.00;0.00;;;1.50;99.90;;;;;;5037018;28;20045;-89
2022/01/08 02:38:58;;;;;;;0.20;0.20;;;1.60;99.90;;;;;;5037130;28;20092;-88
2022/01/08 02:41:26;;;;;;;0.00;0.00;;;1.50;99.90;;;;;;5037191;28;20091;-89
2022/01/08 02:43:53;;;;;;;0.15;0.10;;;1.50;99.90;;;;;;5053423;28;20041;-89
2022/01/08 02:46:20;;;;;;;0.00;0.00;;;1.60;99.90;;;;;;5053343;28;20060;-89
2022/01/08 02:48:46;;;;;;;0.22;0.22;;;1.50;99.90;;;;;;5037631;28;20079;-89
2022/01/08 02:51:12;;;;;;;0.20;0.20;;;1.60;99.90;;;;;;5036826;28;20505;-89
2022/01/08 02:53:37;;;;;;;0.10;0.10;;;1.60;99.90;;;;;;5053605;28;20036;-89
2022/01/08 02:56:04;;;;;;;0.00;0.00;;;1.60;99.90;;;;;;5036480;28;20469;-89
2022/01/08 02:58:29;;;;;;;0.10;0.05;;;1.60;99.90;;;;;;5053400;28;20142;-89
2022/01/08 03:00:57;;;;;;;0.00;0.00;;;1.60;99.90;;;;;;5053392;28;20100;-89
2022/01/08 03:03:22;;;;;;;0.00;0.00;;;1.60;99.90;;;;;;5036921;28;20489;-89
2022/01/08 03:05:48;;;;;;;0.00;0.00;;;1.90;99.90;;;;;;5036730;28;20043;-89
2022/01/08 03:08:14;;;;;;;1.77;1.10;;;1.60;99.90;;;;;;5036732;28;20094;-89
2022/01/08 03:10:40;;;;;;;0.05;0.05;;;3.00;99.90;;;;;;5053489;28;20059;-89
2022/01/08 03:13:06;;;;;;;0.10;0.00;;;1.60;99.90;;;;;;5053315;28;20063;-90
2022/01/08 03:15:39;;;;;;;0.00;0.00;;;1.50;99.90;;;;;;5036285;28;20040;-89
2022/01/08 03:18:06;;;;;;;0.00;0.00;;;1.50;99.90;;;;;;5036507;28;20492;-89
2022/01/08 03:20:35;;;;;;;0.00;0.00;;;2.20;99.90;;;;;;5036437;28;20045;-89
2022/01/08 03:23:03;;;;;;;0.20;0.10;;;1.50;99.90;;;;;;5053384;28;20052;-89
2022/01/08 03:25:30;;;;;;;0.00;0.00;;;1.50;99.90;;;;;;5052971;28;20044;-89
2022/01/08 03:27:56;;;;;;;0.00;0.00;;;1.40;99.90;;;;;;5036114;28;20489;-89
2022/01/08 03:30:24;;;;;;;0.20;0.10;;;1.40;99.90;;;;;;5053249;28;20152;-89
2022/01/08 03:32:51;;;;;;;0.00;0.00;;;1.40;99.90;;;;;;5053252;28;20052;-89
2022/01/08 03:35:17;;;;;;;0.00;0.00;;;1.40;99.90;;;;;;5036124;28;20045;-89
2022/01/08 03:37:43;;;;;;;0.73;0.20;;;1.40;99.90;;;;;;5036422;28;20045;-89
2022/01/08 03:40:09;;;;;;;0.00;0.00;;;1.40;99.90;;;;;;5036285;28;20098;-89
2022/01/08 03:42:34;;;;;;;0.20;0.20;;;1.30;99.90;;;;;;5052779;28;20110;-89
2022/01/08 03:45:00;;;;;;;0.13;0.13;;;1.30;99.90;;;;;;5053084;28;20476;-89
2022/01/08 03:49:51;;;;;;;0.85;0.03;;;1.20;99.90;;;;;;5052631;28;20114;-90
2022/01/08 03:52:17;;;;;;;0.10;0.10;;;1.30;99.90;;;;;;5052844;28;20036;-89
2022/01/08 03:54:43;;;;;;;0.00;0.00;;;1.30;99.90;;;;;;5054168;28;20095;-90
2022/01/08 03:57:09;;;;;;;0.90;0.43;;;2.00;99.90;;;;;;5056871;28;20447;-90
2022/01/08 03:59:35;;;;;;;0.00;0.00;;;1.20;99.90;;;;;;5040435;28;20550;-90
2022/01/08 04:02:01;;;;;;;0.00;0.00;;;1.20;99.90;;;;;;5040216;28;20087;-90
2022/01/08 04:04:26;;;;;;;0.00;0.00;;;1.30;99.90;;;;;;5056697;28;20044;-90
2022/01/08 04:06:52;;;;;;;0.00;0.00;;;1.30;99.90;;;;;;5057091;28;20108;-90
2022/01/08 04:09:18;;;;;;;1.65;1.13;;;1.30;99.90;;;;;;5057071;28;20126;-90
2022/01/08 04:11:44;;;;;;;0.00;0.00;;;1.30;99.90;;;;;;5040103;28;20485;-90
2022/01/08 04:14:11;;;;;;;0.00;0.00;;;1.40;99.90;;;;;;5040177;28;20057;-90
2022/01/08 04:16:41;;;;;;;0.55;0.03;;;1.40;99.90;;;;;;5042695;28;20126;-90
2022/01/08 04:19:07;;;;;;;0.00;0.00;;;1.40;99.90;;;;;;5060474;28;20057;-90
2022/01/08 04:24:03;;;;;;;0.00;0.00;;;1.30;99.90;;;;;;5059791;28;20048;-90
2022/01/08 04:26:29;;;;;;;0.55;0.00;;;1.30;99.90;;;;;;5059795;28;20048;-90
2022/01/08 04:28:55;;;;;;;0.00;0.00;;;1.30;99.90;;;;;;5043859;28;20040;-90
2022/01/08 04:31:22;;;;;;;0.17;0.17;;;1.30;99.90;;;;;;5043534;28;20062;-90
2022/01/08 04:33:48;;;;;;;0.00;0.00;;;1.30;99.90;;;;;;5059597;28;20044;-90
2022/01/08 04:36:13;;;;;;;0.00;0.00;;;1.30;99.90;;;;;;5042767;28;20044;-89
2022/01/08 04:38:39;;;;;;;0.00;0.00;;;1.30;99.90;;;;;;5042903;28;20114;-90
2022/01/08 04:41:05;;;;;;;0.10;0.00;;;1.30;99.90;;;;;;5042889;28;20063;-90
2022/01/08 04:43:31;;;;;;;0.00;0.00;;;1.30;99.90;;;;;;5043135;28;20066;-90
2022/01/08 04:45:56;;;;;;;0.38;0.10;;;1.30;99.90;;;;;;5059241;28;20098;-90
2022/01/08 04:48:22;;;;;;;0.00;0.00;;;1.30;99.90;;;;;;5042622;28;20480;-90
2022/01/08 04:50:48;;;;;;;0.20;0.05;;;1.30;99.90;;;;;;5059454;28;20095;-90
2022/01/08 04:53:14;;;;;;;0.00;0.00;;;1.30;99.90;;;;;;5059120;28;20131;-90
2022/01/08 04:55:40;;;;;;;0.03;0.03;;;1.30;99.90;;;;;;5042465;28;20041;-90
2022/01/08 04:58:06;;;;;;;1.08;0.20;;;1.30;99.90;;;;;;5042659;28;20052;-90
2022/01/08 05:00:32;;;;;;;0.00;0.00;;;1.30;99.90;;;;;;5059124;28;20076;-90
2022/01/08 05:02:59;;;;;;;0.88;0.10;;;1.30;99.90;;;;;;5042362;28;20075;-90
2022/01/08 05:05:25;;;;;;;0.20;0.13;;;1.30;99.90;;;;;;5059002;28;20506;-90
2022/01/08 05:07:51;;;;;;;0.00;0.00;;;1.20;99.90;;;;;;5059073;28;20049;-90
2022/01/08 05:10:17;;;;;;;0.00;0.00;;;1.20;99.90;;;;;;5042308;28;20055;-90
2022/01/08 05:12:43;;;;;;;0.10;0.08;;;1.20;99.90;;;;;;5042029;28;20049;-90
2022/01/08 05:15:10;;;;;;;0.00;0.00;;;1.20;99.90;;;;;;5058913;28;20044;-90
2022/01/08 05:17:38;;;;;;;0.00;0.00;;;1.20;99.90;;;;;;5038767;28;20056;-90
2022/01/08 05:20:06;;;;;;;0.00;0.00;;;1.20;99.90;;;;;;5055556;28;20107;-90
2022/01/08 05:22:42;;;;;;;0.00;0.00;;;1.20;99.90;;;;;;5055360;28;20044;-90
2022/01/08 05:25:08;;;;;;;0.20;0.20;;;1.20;99.90;;;;;;5039035;28;20485;-90
2022/01/08 05:27:34;;;;;;;0.00;0.00;;;1.20;99.90;;;;;;5038750;28;20049;-90
2022/01/08 05:29:59;;;;;;;0.00;0.00;;;1.20;99.90;;;;;;5039438;28;20060;-90
2022/01/08 05:32:27;;;;;;;0.00;0.00;;;1.20;99.90;;;;;;5038771;28;20041;-90
2022/01/08 05:34:56;;;;;;;0.00;0.00;;;1.50;99.90;;;;;;5039635;28;20052;-90
2022/01/08 05:37:22;;;;;;;0.00;0.00;;;1.20;99.90;;;;;;5055915;28;20044;-90
2022/01/08 05:39:49;;;;;;;0.75;0.75;;;1.20;99.90;;;;;;5038667;28;20400;-89
2022/01/08 05:42:14;;;;;;;0.00;0.00;;;1.20;99.90;;;;;;5038870;28;20052;-90
2022/01/08 05:44:40;;;;;;;0.00;0.00;;;1.20;99.90;;;;;;5038341;28;20056;-90
2022/01/08 05:47:06;;;;;;;0.20;0.10;;;1.20;99.90;;;;;;5038358;28;20047;-90
2022/01/08 05:49:32;;;;;;;0.00;0.00;;;1.20;99.90;;;;;;5038021;28;20041;-89
2022/01/08 05:51:58;;;;;;;0.20;0.20;;;1.30;99.90;;;;;;5038079;28;20084;-90
2022/01/08 05:54:23;;;;;;;0.22;0.15;;;1.30;99.90;;;;;;5038212;28;20095;-90
2022/01/08 05:56:50;;;;;;;0.00;0.00;;;1.30;99.90;;;;;;5054443;28;20053;-90
2022/01/08 05:59:16;;;;;;;0.20;0.20;;;1.20;99.90;;;;;;5054793;28;20114;-90
2022/01/08 06:01:42;;;;;;;0.50;0.50;;;1.30;99.90;;;;;;5037706;28;20041;-90
2022/01/08 06:04:08;;;;;;;0.63;0.50;;;1.20;99.90;;;;;;5054658;28;20043;-89
2022/01/08 06:06:35;;;;;;;0.00;0.00;;;1.20;99.90;;;;;;5054262;28;20492;-90
2022/01/08 06:09:02;;;;;;;0.22;0.10;;;1.20;99.90;;;;;;5038038;28;20057;-90
2022/01/08 06:11:28;;;;;;;0.00;0.00;;;1.20;99.90;;;;;;5038327;28;20535;-90
2022/01/08 06:13:54;;;;;;;0.08;0.08;;;1.20;99.90;;;;;;5054258;28;20041;-90
2022/01/08 06:16:19;;;;;;;0.40;0.10;;;1.20;99.90;;;;;;5037622;28;20041;-90
2022/01/08 06:18:45;;;;;;;0.20;0.20;;;1.10;99.90;;;;;;5053627;28;20097;-91
2022/01/08 06:21:11;;;;;;;0.00;0.00;;;1.10;99.90;;;;;;5037710;28;20045;-90
2022/01/08 06:23:37;;;;;;;0.00;0.00;;;1.10;99.90;;;;;;5054254;28;20045;-91
2022/01/08 06:26:05;;;;;;;0.00;0.00;;;1.40;99.90;;;;;;5038128;28;20040;-90
2022/01/08 06:28:31;;;;;;;0.13;0.08;;;1.10;99.90;;;;;;5037537;28;20051;-91
2022/01/08 06:30:59;;;;;;;0.50;0.17;;;1.10;99.90;;;;;;5037794;28;20040;-90
2022/01/08 06:33:25;;;;;;;0.00;0.00;;;1.10;99.90;;;;;;5053444;28;20519;-89
2022/01/08 06:35:51;;;;;;;0.00;0.00;;;1.00;99.90;;;;;;5053923;28;20076;-90
2022/01/08 06:38:18;;;;;;;0.00;0.00;;;1.00;99.90;;;;;;5037072;28;20080;-90
2022/01/08 06:40:45;;;;;;;0.00;0.00;;;1.00;99.90;;;;;;5037359;28;20055;-90
2022/01/08 06:43:10;;;;;;;0.00;0.00;;;1.00;99.90;;;;;;5053917;28;20048;-90
2022/01/08 06:45:36;;;;;;;0.00;0.00;;;1.00;99.90;;;;;;5054115;28;20369;-90
2022/01/08 06:48:02;;;;;;;0.00;0.00;;;1.00;99.90;;;;;;5037273;28;20037;-91
2022/01/08 06:50:28;;;;;;;0.00;0.00;;;1.00;99.90;;;;;;5036784;28;20053;-90
2022/01/08 06:52:55;;;;;;;0.30;0.30;;;1.00;99.90;;;;;;5053892;28;20043;-90
2022/01/08 06:55:21;;;;;;;0.00;0.00;;;1.00;99.90;;;;;;5037163;28;20052;-91
2022/01/08 06:57:46;;;;;;;0.10;0.10;;;1.00;99.90;;;;;;5053767;28;20064;-90
2022/01/08 07:00:13;;;;;;;1.15;0.73;;;0.90;99.90;;;;;;5036117;28;20053;-90
2022/01/08 07:02:38;;;;;;;0.00;0.00;;;1.00;99.90;;;;;;5053774;28;20084;-90
2022/01/08 07:05:04;;;;;;;0.00;0.00;;;0.90;99.90;;;;;;5036937;28;20381;-91
2022/01/08 07:07:30;;;;;;;0.00;0.00;;;0.90;99.90;;;;;;5054164;28;20132;-90
2022/01/08 07:09:56;;;;;;;0.43;0.43;;;1.00;99.90;;;;;;5037240;28;20072;-90
2022/01/08 07:12:21;;;;;;;0.00;0.00;;;0.90;99.90;;;;;;5053282;28;20049;-89
2022/01/08 07:14:50;;;;;;;0.00;0.00;;;0.90;99.90;;;;;;5036812;28;20443;-89
2022/01/08 07:17:15;;;;;;;0.00;0.00;;;1.00;99.90;;;;;;5036645;28;20061;-91
2022/01/08 07:19:41;;;;;;;0.28;0.15;;;0.90;99.90;;;;;;5053952;28;20045;-91
2022/01/08 07:22:07;;;;;;;0.00;0.00;;;0.90;99.90;;;;;;5036293;28;20060;-90
2022/01/08 07:24:32;;;;;;;0.00;0.00;;;0.90;99.90;;;;;;5052930;28;20083;-90
2022/01/08 07:26:58;;;;;;;0.00;0.00;;;0.90;99.90;;;;;;5053222;28;20040;-90
2022/01/08 07:29:27;;;;;;;0.03;0.03;;;0.90;99.90;;;;;;5035691;28;20040;-90
2022/01/08 07:31:53;;;;;;;0.08;0.08;;;1.40;99.90;;;;;;5036639;28;20060;-90
2022/01/08 07:34:18;;;;;;;0.00;0.00;;;0.90;99.90;;;;;;5036929;28;20115;-90
2022/01/08 07:36:44;;;;;;;0.00;0.00;;;0.90;99.90;;;;;;5053411;28;20404;-90
2022/01/08 07:39:10;;;;;;;0.22;0.05;;;0.90;99.90;;;;;;5037179;28;20056;-90
2022/01/08 07:41:35;;;;;;;0.20;0.20;;;0.80;99.90;;;;;;5036426;28;20048;-90
2022/01/08 07:44:01;;;;;;;0.08;0.08;;;0.90;99.90;;;;;;5053306;28;20094;-90
2022/01/08 07:46:27;;;;;;;0.38;0.38;;;0.80;99.90;;;;;;5036653;28;20086;-90
2022/01/08 07:48:52;;;;;;;0.00;0.00;;;0.80;99.90;;;;;;5037150;28;20130;-89
2022/01/08 07:51:18;;;;;;;0.00;0.00;;;1.10;99.90;;;;;;5052591;28;20048;-90
2022/01/08 07:53:44;;;;;;;0.00;0.00;;;0.90;99.90;;;;;;5036869;28;20049;-90
2022/01/08 07:56:09;;;;;;;0.10;0.05;;;0.90;99.90;;;;;;5036396;28;20041;-90
2022/01/08 07:58:35;;;;;;;0.00;0.00;;;0.90;99.90;;;;;;5036196;28;20056;-90
2022/01/08 08:01:03;;;;;;;0.00;0.00;;;1.20;99.90;;;;;;5036842;28;20076;-90
2022/01/08 08:03:29;;;;;;;0.00;0.00;;;1.00;99.90;;;;;;5052944;28;20048;-89
2022/01/08 08:05:55;;;;;;;0.57;0.13;;;0.90;99.90;;;;;;5036313;28;20395;-92
2022/01/08 08:08:21;;;;;;;0.00;0.00;;;0.90;99.90;;;;;;5036772;28;20107;-92
2022/01/08 08:10:50;;;;;;;0.00;0.00;;;0.90;99.90;;;;;;5041538;28;20132;-93
2022/01/08 08:13:20;;;;;;;0.00;0.00;;;1.00;99.90;;;;;;5047979;28;20048;-92
2022/01/08 08:15:52;;;;;;;0.17;0.17;;;0.90;99.90;;;;;;5043501;28;20112;-91
2022/01/08 08:18:21;;;;;;;0.00;0.00;;;1.00;99.90;;;;;;5044270;28;20113;-90
2022/01/08 08:20:47;;;;;;;0.00;0.00;;;1.00;99.90;;;;;;5045872;28;20134;-90
2022/01/08 08:23:13;;;;;;;1.55;0.40;;;1.10;99.90;;;;;;5047331;28;20041;-90
2022/01/08 08:25:39;;;;;;;0.00;0.00;;;1.10;99.90;;;;;;5060944;28;20434;-91
2022/01/08 08:28:05;;;;;;;0.00;0.00;;;1.10;99.90;;;;;;5062117;28;20033;-90
2022/01/08 08:30:34;;;;;;;0.00;0.00;;;1.20;99.90;;;;;;5043706;28;20400;-89
2022/01/08 08:33:04;;;;;;;0.15;0.15;;;1.20;99.90;;;;;;5060975;28;20052;-89
2022/01/08 08:35:30;;;;;;;0.00;0.00;;;1.30;99.90;;;;;;5043272;28;20404;-90
2022/01/08 08:37:56;;;;;;;0.00;0.00;;;1.30;99.90;;;;;;5044363;28;20051;-91
2022/01/08 08:40:21;;;;;;;0.20;0.17;;;1.40;99.90;;;;;;5056156;28;20048;-90
2022/01/08 08:42:47;;;;;;;0.05;0.05;;;2.10;99.90;;;;;;5060436;28;20041;-90
2022/01/08 08:45:13;;;;;;;0.03;0.00;;;1.40;99.90;;;;;;5076214;28;20054;-89
2022/01/08 08:47:40;;;;;;;0.00;0.00;;;1.40;99.90;;;;;;5056218;28;20047;-90
2022/01/08 08:50:09;;;;;;;0.35;0.20;;;1.60;99.90;;;;;;5055831;28;20049;-90
2022/01/08 08:52:34;;;;;;;0.20;0.20;;;1.80;99.90;;;;;;5056176;28;20055;-90
2022/01/08 08:55:00;;;;;;;0.00;0.00;;;2.00;99.90;;;;;;5055909;28;20048;-92
2022/01/08 08:57:26;;;;;;;1.55;0.35;;;2.40;99.90;;;;;;5063045;28;20406;-92
2022/01/08 08:59:52;;;;;;;0.00;0.00;;;3.10;99.90;;;;;;5059978;28;20135;-92
2022/01/08 09:02:18;;;;;;;0.43;0.25;;;3.50;99.90;;;;;;5076273;28;20044;-92
2022/01/08 09:04:44;;;;;;;0.25;0.20;;;3.80;99.90;;;;;;5074513;28;20043;-92
2022/01/08 09:07:10;;;;;;;0.05;0.05;;;4.00;99.90;;;;;;5074640;28;20097;-92
2022/01/08 09:09:36;;;;;;;0.00;0.00;;;4.50;99.90;;;;;;5074639;28;20079;-91
2022/01/08 09:12:02;;;;;;;0.00;0.00;;;4.90;99.90;;;;;;5073693;28;20097;-91
2022/01/08 09:14:28;;;;;;;0.52;0.52;;;5.30;99.90;;;;;;5056328;28;20040;-91
2022/01/08 09:16:58;;;;;;;0.28;0.13;;;5.80;99.90;;;;;;5057971;28;20063;-91
2022/01/08 09:19:24;;;;;;;0.00;0.00;;;6.40;99.90;;;;;;5077249;28;20046;-92
2022/01/08 09:21:50;;;;;;;0.00;0.00;;;6.30;99.90;;;;;;5057385;28;20049;-90
2022/01/08 09:24:18;;;;;;;0.00;0.00;;;6.40;99.90;;;;;;5054024;28;20048;-92
2022/01/08 09:26:45;;;;;;;0.85;0.85;;;6.70;99.90;;;;;;5060635;28;20044;-90
2022/01/08 09:29:11;;;;;;;1.20;0.30;;;7.70;99.90;;;;;;5060601;28;20134;-90
2022/01/08 09:31:40;;;;;;;0.20;0.10;;;6.10;99.90;;;;;;5076883;28;20040;-89
2022/01/08 09:34:06;;;;;;;0.00;0.00;;;6.30;99.90;;;;;;5061035;28;20040;-90
2022/01/08 09:36:32;;;;;;;0.00;0.00;;;6.00;99.90;;;;;;5077321;28;20123;-90
2022/01/08 09:38:59;;;;;;;0.10;0.10;;;5.80;99.90;;;;;;5061201;28;20411;-90
2022/01/08 09:41:25;;;;;;;0.05;0.00;;;5.70;99.90;;;;;;5078490;28;20075;-90
2022/01/08 09:43:51;;;;;;;0.10;0.10;;;5.40;99.90;;;;;;5078151;28;20098;-90
2022/01/08 09:46:21;;;;;;;0.20;0.00;;;5.20;99.90;;;;;;5061427;28;20036;-91
2022/01/08 09:48:47;;;;;;;0.10;0.00;;;5.00;99.90;;;;;;5078433;28;20044;-90
2022/01/08 09:51:13;;;;;;;0.20;0.20;;;5.00;99.90;;;;;;5078371;28;20040;-90
2022/01/08 09:53:39;;;;;;;0.00;0.00;;;5.10;99.90;;;;;;5060917;28;20356;-90
2022/01/08 09:56:05;;;;;;;0.00;0.00;;;5.20;99.90;;;;;;5061323;28;20044;-87
2022/01/08 09:58:32;;;;;;;0.00;0.00;;;5.20;99.90;;;;;;5051228;28;20472;-92
2022/01/08 10:00:58;;;;;;;0.50;0.10;;;5.20;99.90;;;;;;5057589;28;20059;-91
2022/01/08 10:03:26;;;;;;;9.52;0.60;;;5.20;99.90;;;;;;5075690;28;20107;-91
2022/01/08 10:05:55;;;;;;;0.55;0.55;;;5.70;99.90;;;;;;5059995;28;20130;-91
2022/01/08 10:08:43;;;;;;;0.25;0.10;;;6.50;99.90;;;;;;5059577;28;20129;-91
2022/01/08 10:11:09;;;;;;;0.17;0.00;;;6.90;99.90;;;;;;5060365;28;20051;-90
2022/01/08 10:13:40;;;;;;;2.47;0.10;;;7.00;99.90;;;;;;5046236;28;20403;-90
2022/01/08 10:19:15;;;;;;;0.00;0.00;;;5.90;99.90;;;;;;5052346;28;20055;-91
2022/01/08 10:21:44;;;;;;;0.32;0.30;;;6.10;99.90;;;;;;5058587;28;20040;-90
2022/01/08 10:24:10;;;;;;;1.20;0.17;;;6.60;99.90;;;;;;5040033;28;20052;-90
2022/01/08 10:26:39;;;;;;;0.65;0.63;;;5.40;99.90;;;;;;5035987;28;20048;-89
2022/01/08 10:29:17;;;;;;;0.20;0.20;;;5.30;99.90;;;;;;5052925;28;20045;-91
2022/01/08 10:31:46;;;;;;;0.00;0.00;;;5.50;99.90;;;;;;5036260;28;20049;-89
2022/01/08 10:34:18;;;;;;;0.17;0.05;;;6.00;99.90;;;;;;5052643;28;20051;-90
2022/01/08 10:36:48;;;;;;;0.13;0.10;;;6.20;99.90;;;;;;5052550;28;20037;-91
2022/01/08 10:39:29;;;;;;;0.32;0.20;;;6.30;99.90;;;;;;5035656;28;20053;-89
2022/01/08 10:41:57;;;;;;;0.00;0.00;;;6.20;99.90;;;;;;5057941;28;20128;-90
2022/01/08 10:44:33;;;;;;;0.65;0.28;;;5.90;99.90;;;;;;5052450;28;20137;-89
2022/01/08 10:47:05;;;;;;;0.35;0.22;;;5.70;99.90;;;;;;5052944;28;20126;-91
2022/01/08 10:49:41;;;;;;;0.00;0.00;;;5.40;99.90;;;;;;5034993;28;20118;-91
2022/01/08 10:52:15;;;;;;;0.22;0.22;;;5.10;99.90;;;;;;5035610;28;20051;-91
2022/01/08 10:54:53;;;;;;;0.13;0.13;;;4.90;99.90;;;;;;5052552;28;20377;-91
2022/01/08 10:57:19;;;;;;;0.08;0.08;;;4.80;99.90;;;;;;5052446;28;20041;-91
2022/01/08 10:59:45;;;;;;;0.63;0.45;;;4.60;99.90;;;;;;5049591;28;20048;-91
2022/01/08 11:02:15;;;;;;;0.10;0.00;;;4.40;99.90;;;;;;5071846;28;20118;-91
2022/01/08 11:04:54;;;;;;;0.05;0.05;;;4.50;99.90;;;;;;5055260;28;20044;-90
2022/01/08 11:07:25;;;;;;;0.20;0.20;;;4.40;99.90;;;;;;5071999;28;20084;-90
2022/01/08 11:09:53;;;;;;;0.32;0.32;;;5.10;99.90;;;;;;5071312;28;20109;-91
2022/01/08 11:12:28;;;;;;;0.20;0.20;;;5.90;99.90;;;;;;5071359;28;20067;-89
2022/01/08 11:15:12;;;;;;;0.10;0.05;;;5.30;99.90;;;;;;5072184;28;20080;-91
2022/01/08 11:17:41;;;;;;;0.10;0.10;;;4.80;99.90;;;;;;5055282;28;20052;-91
2022/01/08 11:20:16;;;;;;;0.40;0.40;;;5.00;99.90;;;;;;5054483;28;20056;-90
2022/01/08 11:22:44;;;;;;;0.00;0.00;;;4.60;99.90;;;;;;5071970;28;20407;-91
2022/01/08 11:25:17;;;;;;;0.00;0.00;;;4.50;99.90;;;;;;5054961;28;20404;-90
2022/01/08 11:27:56;;;;;;;0.00;0.00;;;4.70;99.90;;;;;;5074224;28;20418;-90
2022/01/08 11:30:25;;;;;;;0.40;0.30;;;4.50;99.90;;;;;;5074121;28;20083;-91
2022/01/08 11:32:59;;;;;;;3.50;0.50;;;4.40;99.90;;;;;;5056762;28;20052;-91
2022/01/08 11:35:25;;;;;;;0.22;0.10;;;4.30;99.90;;;;;;5056790;28;20365;-90
2022/01/08 11:37:55;;;;;;;0.00;0.00;;;4.20;99.90;;;;;;5073304;28;20056;-91
2022/01/08 11:40:23;;;;;;;0.00;0.00;;;4.20;99.90;;;;;;5073714;28;20496;-91
2022/01/08 11:42:49;;;;;;;0.00;0.00;;;4.20;99.90;;;;;;5057096;28;20080;-89
2022/01/08 11:45:20;;;;;;;0.10;0.10;;;4.10;99.90;;;;;;5073535;28;20090;-90
2022/01/08 11:47:55;;;;;;;0.00;0.00;;;4.00;99.90;;;;;;5073486;28;20044;-91
2022/01/08 11:50:22;;;;;;;;;;;4.00;99.90;;;;;;5056996;28;20071;-90
2022/01/08 11:53:24;;;;;;;0.20;0.17;;;4.00;99.90;;;;;;5056524;28;19920;-91
2022/01/08 11:56:02;;;;;;;0.13;0.13;;;4.10;99.90;;;;;;5073064;28;20044;-91
2022/01/08 11:58:32;;;;;;;0.15;0.15;;;4.00;99.90;;;;;;5055863;28;20060;-91
2022/01/08 12:01:12;;;;;;;0.73;0.47;;;4.00;99.90;;;;;;5066989;28;20119;-90
2022/01/08 12:03:49;;;;;;;0.35;0.35;;;4.00;99.90;;;;;;5052693;28;20503;-91
2022/01/08 12:06:26;;;;;;;0.28;0.28;;;4.50;99.90;;;;;;5036385;28;20041;-90
2022/01/08 12:09:08;;;;;;;0.17;0.10;;;4.00;99.90;;;;;;5035193;28;20451;-90
2022/01/08 12:11:56;;;;;;;0.00;0.00;;;4.00;99.90;;;;;;5036702;28;20047;-91
2022/01/08 12:14:28;;;;;;;0.38;0.20;;;4.00;99.90;;;;;;4976008;28;20066;-91
2022/01/08 12:16:56;;;;;;;1.40;0.85;;;4.00;99.90;;;;;;4979442;28;20054;-91
2022/01/08 12:19:36;;;;;;;12.23;0.40;;;4.00;99.90;;;;;;4960545;28;20046;-92
2022/01/08 12:22:16;;;;;;;0.55;0.55;;;4.00;99.90;;;;;;4961522;28;20069;-90
2022/01/08 12:24:49;;;;;;;1.10;0.10;;;4.00;99.90;;;;;;4961031;28;20047;-92
2022/01/08 12:27:37;;;;;;;0.60;0.20;;;4.00;99.90;;;;;;4961202;28;20066;-91
2022/01/08 12:30:30;;;;;;;0.25;0.20;;;3.90;99.90;;;;;;4961493;28;20086;-90
2022/01/08 12:33:17;;;;;;;0.10;0.10;;;3.90;99.90;;;;;;4960320;28;20066;-88
2022/01/08 12:35:43;;;;;;;0.50;0.35;;;3.90;99.90;;;;;;4960381;28;20102;-88
2022/01/08 12:38:24;;;;;;;0.10;0.10;;;3.90;99.90;;;;;;4960466;28;20450;-91
2022/01/08 12:40:50;;;;;;;0.00;0.00;;;3.80;99.90;;;;;;4960234;28;20085;-90
2022/01/08 12:43:33;;;;;;;1.85;1.50;;;3.80;99.90;;;;;;4960234;28;20089;-90
2022/01/08 12:46:20;;;;;;;0.00;0.00;;;3.80;99.90;;;;;;4957898;28;20126;-87
2022/01/08 12:49:03;;;;;;;0.45;0.45;;;3.80;99.90;;;;;;4957845;28;20051;-92
2022/01/08 12:51:47;;;;;;;0.80;0.50;;;3.80;99.90;;;;;;5005140;28;20504;-89
2022/01/08 12:54:16;;;;;;;0.57;0.13;;;3.80;99.90;;;;;;5052621;28;20107;-91
2022/01/08 12:56:48;;;;;;;0.20;0.10;;;3.80;99.90;;;;;;5035242;28;20128;-91
2022/01/08 12:59:14;;;;;;;0.00;0.00;;;3.80;99.90;;;;;;5053360;28;20396;-89
2022/01/08 13:01:49;;;;;;;0.30;0.30;;;3.80;99.90;;;;;;5053223;28;20048;-88
2022/01/08 13:04:17;;;;;;;;;;;3.80;99.90;;;;;;5037345;28;20057;-87
2022/01/08 13:06:44;;;;;;;0.17;0.17;;;3.80;99.90;;;;;;5054301;28;19920;-90
2022/01/08 13:09:11;;;;;;;1.25;0.43;;;3.80;99.90;;;;;;5037657;28;20049;-90
2022/01/08 13:11:38;;;;;;;1.25;1.17;;;3.90;99.90;;;;;;5036600;28;20480;-90
2022/01/08 13:14:08;;;;;;;0.20;0.20;;;3.90;99.90;;;;;;5053745;28;20091;-89
2022/01/08 13:16:47;;;;;;;2.10;0.40;;;3.90;99.90;;;;;;5037206;28;20527;-89
2022/01/08 13:19:14;;;;;;;1.27;0.65;;;3.90;99.90;;;;;;5036620;28;20106;-89
2022/01/08 13:21:48;;;;;;;0.85;0.60;;;4.00;99.90;;;;;;5036130;28;20049;-88
2022/01/08 13:24:19;;;;;;;0.40;0.40;;;3.90;99.90;;;;;;5053754;28;20049;-88
2022/01/08 13:26:49;;;;;;;0.30;0.30;;;4.00;99.90;;;;;;5035311;28;20106;-88
2022/01/08 13:29:37;;;;;;;0.93;0.45;;;4.00;99.90;;;;;;5053985;28;20132;-88